Porterville, CA (93257)

2:39 AM PST on February 07, 2016 (GMT -0800)
Pioneer Middle School | | Change Station
CLOSE
Current Station
Personal Weather Station
Location: Porterville, CA
Elevation: 472 ft
Nearby Weather Stations

Elev 472 ft 36.05 °N, 119.01 °W | Updated 23 seconds ago

Clear
Clear
42.8 °F
Feels Like 43 °F
N
0.0
Wind Variable Wind from NNE
Gusts 0.0 mph

Today
High -- | Low -- °F
--% Chance of Precip.
Yesterday
High -- | Low -- °F
Precip. -- in
Pressure 30.39 in
Visibility 4.0 miles
Clouds Clear
Windchill 43 °F
Dew Point 41 °F
Humidity 93%
Rainfall 0.00 in
Snow Depth Not available.
6:51 AM 5:28 PM
Waning Crescent, 2% visible
METAR KPTV 070956Z AUTO 12004KT 4SM BR CLR 04/03 A3034 RMK AO2 SLP289 T00390028
Pressure 30.39 in
Visibility 4.0 miles
Clouds Clear
Windchill 43 °F
Dew Point 41 °F
Humidity 93%
Rainfall 0.00 in
Snow Depth Not available.
6:51 AM 5:28 PM
Waning Crescent, 2% visible
METAR KPTV 070956Z AUTO 12004KT 4SM BR CLR 04/03 A3034 RMK AO2 SLP289 T00390028

10-Day Weather Forecast

Almanac

Astronomy

Feb. 07, 2016 Rise Set
Actual Time
Civil Twilight
Nautical Twilight
Astronomical Twilight
Moon
Length of Visible Light
Length of Day
Tomorrow will be .
, % of the Moon is Illuminated

Today's Extremes

State Highs State Lows

Community

WunderPhotos

Upload Photos

1,891,171 photos uploaded!

WunderBlog® & News

Nearby

Air Quality

  Air Quality AQ Index Pollutant
Not available.

Snow Depth

Station Depth Elevation

Earthquake Activity

City Distance Mag. Time & Date
Minimum magnitude displayed is 2.5.

Coastal Water Temperatures

Place Temperature

Stations

Nearby Weather Stations

Station Location Temp. Windchill Dew Point Humidity Wind Precip. Elev Updated Type
                   

Watches & Warnings

There are currently no watches in effect.